Terminal Aerodrome Forecast
Issued by NWS

Home | Current Version | Previous Version | Text Only | Print | Product List | Glossary On
Versions: 1 2 3 4 5 6 7 8 9 10 11 12
000
FTUS45 KTFX 230500
TAFBZN
TAF
KBZN 230520Z 2306/2406 VRB06KT P6SM SCT070 BKN110
     FM230900 VRB05KT P6SM SCT080
     FM232300 23007KT P6SM VCTS SCT060CB BKN090
     FM240300 VRB04KT P6SM SCT080 BKN120=

USA.gov is the U.S. government's official web portal to all federal, state and local government web resources and services.